createdAt,value
2023-02-19T00:00:06.193Z,1.00
2023-02-19T00:01:06.087Z,1.00
2023-02-19T00:02:06.197Z,1.00
2023-02-19T00:03:06.217Z,1.00
2023-02-19T00:04:06.121Z,1.00
2023-02-19T00:05:06.162Z,1.00
2023-02-19T00:06:06.315Z,1.00
2023-02-19T00:07:06.125Z,1.00
2023-02-19T00:08:06.128Z,1.00
2023-02-19T00:09:06.144Z,1.00
2023-02-19T00:10:06.462Z,1.00
2023-02-19T00:11:06.342Z,1.00
2023-02-19T00:12:06.158Z,1.00
2023-02-19T00:13:07.319Z,1.00
2023-02-19T00:14:08.028Z,1.00
2023-02-19T00:15:06.896Z,1.00
2023-02-19T00:16:06.267Z,1.00
2023-02-19T00:17:06.101Z,1.00
2023-02-19T00:18:07.041Z,1.00
2023-02-19T00:19:07.848Z,1.00
2023-02-19T00:20:06.014Z,1.00
2023-02-19T00:21:06.224Z,1.00
2023-02-19T00:22:06.353Z,1.00
2023-02-19T00:23:05.934Z,1.00
2023-02-19T00:24:05.939Z,1.00
2023-02-19T00:25:06.252Z,1.00
2023-02-19T00:26:17.723Z,1.00
2023-02-19T00:27:06.884Z,1.00
2023-02-19T00:28:06.078Z,1.00
2023-02-19T00:29:05.906Z,1.00
2023-02-19T00:30:06.854Z,1.00
2023-02-19T00:31:05.943Z,1.00
2023-02-19T00:32:07.076Z,1.00
2023-02-19T00:33:05.717Z,1.00
2023-02-19T00:34:05.843Z,1.00
2023-02-19T00:35:06.441Z,1.00
2023-02-19T00:36:05.916Z,1.00
2023-02-19T00:37:06.946Z,1.00
2023-02-19T00:38:05.768Z,1.00
2023-02-19T00:39:05.657Z,1.00
2023-02-19T00:40:05.970Z,1.00
2023-02-19T00:41:06.903Z,1.00
2023-02-19T00:42:05.665Z,1.00
2023-02-19T00:43:05.676Z,1.00
2023-02-19T00:44:05.599Z,1.00
2023-02-19T00:45:06.725Z,1.00
2023-02-19T00:46:05.598Z,1.00
2023-02-19T00:47:05.602Z,1.00
2023-02-19T00:48:05.583Z,1.00
2023-02-19T00:49:04.583Z,1.00
2023-02-19T00:50:05.705Z,1.00
2023-02-19T00:51:05.498Z,1.00
2023-02-19T00:52:05.536Z,1.00
2023-02-19T00:53:05.541Z,1.00
2023-02-19T00:54:05.765Z,1.00
2023-02-19T00:55:05.527Z,1.00
2023-02-19T00:56:05.568Z,1.00
2023-02-19T00:57:05.471Z,1.00
2023-02-19T00:58:05.489Z,1.00
2023-02-19T00:59:05.502Z,1.00
2023-02-19T01:00:06.305Z,1.00
2023-02-19T01:01:05.393Z,1.00
2023-02-19T01:02:05.571Z,1.00
2023-02-19T01:03:05.412Z,1.00
2023-02-19T01:04:06.693Z,1.00
2023-02-19T01:05:05.529Z,1.00
2023-02-19T01:06:05.741Z,1.00
2023-02-19T01:07:05.429Z,1.00
2023-02-19T01:08:05.338Z,1.00
2023-02-19T01:09:05.450Z,1.00
2023-02-19T01:10:05.940Z,1.00
2023-02-19T01:11:05.361Z,1.00
2023-02-19T01:12:06.373Z,1.00
2023-02-19T01:13:05.267Z,1.00
2023-02-19T01:14:05.316Z,1.00
2023-02-19T01:15:05.278Z,1.00
2023-02-19T01:16:05.997Z,1.00
2023-02-19T01:17:07.541Z,1.00
2023-02-19T01:18:05.910Z,1.00
2023-02-19T01:19:05.702Z,1.00
2023-02-19T01:20:06.646Z,1.00
2023-02-19T01:21:05.527Z,1.00
2023-02-19T01:22:06.450Z,1.00
2023-02-19T01:23:06.052Z,1.00
2023-02-19T01:24:05.328Z,1.00
2023-02-19T01:25:05.931Z,1.00
2023-02-19T01:26:05.276Z,1.00
2023-02-19T01:27:05.256Z,1.00
2023-02-19T01:28:06.794Z,1.00
2023-02-19T01:29:07.933Z,1.00
2023-02-19T01:30:05.330Z,1.00
2023-02-19T01:31:05.933Z,1.00
2023-02-19T01:32:05.401Z,1.00
2023-02-19T01:33:11.951Z,1.00
2023-02-19T01:34:06.931Z,1.00
2023-02-19T01:35:05.303Z,1.00
2023-02-19T01:36:05.220Z,1.00
2023-02-19T01:37:05.321Z,1.00
2023-02-19T01:38:06.242Z,1.00
2023-02-19T01:39:05.183Z,1.00
2023-02-19T01:40:05.748Z,1.00
2023-02-19T01:41:05.741Z,1.00
2023-02-19T01:42:08.212Z,1.00
2023-02-19T01:43:06.376Z,1.00
2023-02-19T01:44:05.490Z,1.00
2023-02-19T01:45:05.065Z,1.00
2023-02-19T01:46:05.774Z,1.00
2023-02-19T01:47:06.810Z,1.00
2023-02-19T01:48:05.413Z,1.00
2023-02-19T01:49:05.527Z,1.00
2023-02-19T01:50:05.085Z,1.00
2023-02-19T01:51:04.887Z,1.00
2023-02-19T01:52:06.335Z,1.00
2023-02-19T01:53:05.003Z,1.00
2023-02-19T01:54:04.909Z,1.00
2023-02-19T01:55:05.991Z,1.00
2023-02-19T01:56:05.543Z,1.00
2023-02-19T01:57:05.036Z,1.00
2023-02-19T01:58:04.884Z,1.00
2023-02-19T01:59:04.952Z,1.00
2023-02-19T02:00:04.953Z,1.00
2023-02-19T02:01:04.838Z,1.00
2023-02-19T02:02:06.219Z,1.00
2023-02-19T02:03:05.377Z,1.00
2023-02-19T02:04:04.780Z,1.00
2023-02-19T02:05:04.775Z,1.00
2023-02-19T02:06:04.743Z,1.00
2023-02-19T02:07:05.520Z,1.00
2023-02-19T02:08:04.864Z,1.00
2023-02-19T02:09:04.758Z,1.00
2023-02-19T02:10:04.721Z,1.00
2023-02-19T02:11:04.726Z,1.00
2023-02-19T02:12:05.232Z,1.00
2023-02-19T02:13:05.189Z,1.00
2023-02-19T02:14:05.024Z,1.00
2023-02-19T02:15:04.702Z,1.00
2023-02-19T02:16:04.723Z,1.00
2023-02-19T02:17:04.614Z,1.00
2023-02-19T02:18:05.245Z,1.00
2023-02-19T02:19:05.188Z,1.00
2023-02-19T02:20:04.629Z,1.00
2023-02-19T02:21:04.739Z,1.00
2023-02-19T02:22:04.644Z,1.00
2023-02-19T02:23:05.312Z,1.00
2023-02-19T02:24:05.016Z,1.00
2023-02-19T02:25:04.561Z,1.00
2023-02-19T02:26:05.290Z,1.00
2023-02-19T02:27:04.673Z,1.00
2023-02-19T02:28:04.532Z,1.00
2023-02-19T02:29:04.539Z,1.00
2023-02-19T02:30:06.245Z,1.00
2023-02-19T02:31:05.928Z,1.00
2023-02-19T02:32:05.326Z,1.00
2023-02-19T02:33:05.291Z,1.00
2023-02-19T02:34:04.517Z,1.00
2023-02-19T02:35:04.478Z,1.00
2023-02-19T02:36:05.344Z,1.00
2023-02-19T02:37:04.488Z,1.00
2023-02-19T02:38:05.626Z,1.00
2023-02-19T02:39:04.451Z,1.00
2023-02-19T02:40:04.895Z,1.00
2023-02-19T02:41:09.824Z,1.00
2023-02-19T02:42:06.103Z,1.00
2023-02-19T02:43:04.714Z,1.00
2023-02-19T02:44:05.748Z,1.00
2023-02-19T02:45:05.206Z,1.00
2023-02-19T02:46:19.792Z,1.00
2023-02-19T02:47:06.579Z,1.00
2023-02-19T02:48:06.869Z,1.00
2023-02-19T02:49:06.047Z,1.00
2023-02-19T02:50:05.954Z,1.00
2023-02-19T02:51:06.022Z,1.00
2023-02-19T02:52:05.553Z,1.00
2023-02-19T02:53:05.784Z,1.00
2023-02-19T02:54:12.321Z,1.00
2023-02-19T02:55:08.161Z,1.00
2023-02-19T02:56:10.697Z,1.00
2023-02-19T02:57:08.245Z,1.00
2023-02-19T02:58:10.544Z,1.00
2023-02-19T02:59:11.590Z,1.00
2023-02-19T03:00:11.785Z,1.00
2023-02-19T03:01:45.581Z,1.00
2023-02-19T03:02:11.783Z,1.00
2023-02-19T03:03:10.024Z,1.00
2023-02-19T03:04:17.630Z,1.00
2023-02-19T03:05:09.119Z,1.00
2023-02-19T03:06:07.702Z,1.00
2023-02-19T03:07:27.993Z,1.00
2023-02-19T03:08:06.035Z,1.00
2023-02-19T03:09:05.504Z,1.00
2023-02-19T03:10:05.419Z,1.00
2023-02-19T03:11:08.551Z,1.00
2023-02-19T03:12:06.740Z,1.00
2023-02-19T03:13:05.833Z,1.00
2023-02-19T03:14:05.663Z,1.00
2023-02-19T03:15:07.704Z,1.00
2023-02-19T03:16:05.061Z,1.00
2023-02-19T03:17:04.823Z,1.00
2023-02-19T03:18:04.737Z,1.00
2023-02-19T03:19:05.992Z,1.00
2023-02-19T03:20:04.030Z,1.00
2023-02-19T03:21:05.060Z,1.00
2023-02-19T03:22:04.990Z,1.00
2023-02-19T03:23:05.689Z,1.00
2023-02-19T03:24:03.974Z,1.00
2023-02-19T03:25:04.059Z,1.00
2023-02-19T03:26:05.452Z,1.00
2023-02-19T03:27:04.408Z,1.00
2023-02-19T03:28:04.487Z,1.00
2023-02-19T03:29:03.881Z,1.00
2023-02-19T03:30:04.588Z,1.00
2023-02-19T03:31:04.228Z,1.00
2023-02-19T03:32:04.426Z,1.00
2023-02-19T03:33:03.915Z,1.00
2023-02-19T03:34:03.819Z,1.00
2023-02-19T03:35:04.436Z,1.00
2023-02-19T03:36:04.006Z,1.00
2023-02-19T03:37:03.825Z,1.00
2023-02-19T03:38:06.914Z,1.00
2023-02-19T03:39:03.849Z,1.00
2023-02-19T03:40:04.056Z,1.00
2023-02-19T03:41:03.764Z,1.00
2023-02-19T03:42:03.746Z,1.00
2023-02-19T03:43:04.901Z,1.00
2023-02-19T03:44:03.887Z,1.00
2023-02-19T03:45:03.712Z,1.00
2023-02-19T03:46:05.113Z,1.00
2023-02-19T03:47:03.677Z,1.00
2023-02-19T03:48:03.703Z,1.00
2023-02-19T03:49:04.325Z,1.00
2023-02-19T03:50:03.729Z,1.00
2023-02-19T03:51:04.444Z,1.00
2023-02-19T03:52:03.721Z,1.00
2023-02-19T03:53:03.546Z,1.00
2023-02-19T03:54:03.642Z,1.00
2023-02-19T03:55:03.779Z,1.00
2023-02-19T03:56:03.753Z,1.00
2023-02-19T03:57:03.544Z,1.00
2023-02-19T03:58:03.480Z,1.00
2023-02-19T03:59:03.474Z,1.00
2023-02-19T04:00:03.501Z,1.00
2023-02-19T04:03:05.277Z,1.00
2023-02-19T04:04:06.063Z,1.00
2023-02-19T04:05:06.162Z,1.00
2023-02-19T04:06:06.100Z,1.00
2023-02-19T04:07:06.119Z,1.00
2023-02-19T04:08:06.026Z,1.00
2023-02-19T04:09:05.942Z,1.00
2023-02-19T04:10:06.017Z,1.00
2023-02-19T04:11:05.916Z,1.00
2023-02-19T04:12:06.020Z,1.00
2023-02-19T04:13:05.954Z,1.00
2023-02-19T04:14:05.933Z,1.00
2023-02-19T04:15:05.927Z,1.00
2023-02-19T04:16:05.930Z,1.00
2023-02-19T04:17:05.852Z,1.00
2023-02-19T04:18:05.866Z,1.00
2023-02-19T04:19:05.871Z,1.00
2023-02-19T04:20:05.872Z,1.00
2023-02-19T04:21:05.857Z,1.00
2023-02-19T04:22:05.889Z,1.00
2023-02-19T04:23:05.795Z,1.00
2023-02-19T04:24:05.791Z,1.00
2023-02-19T04:25:05.807Z,1.00
2023-02-19T04:26:05.815Z,1.00
2023-02-19T04:27:05.800Z,1.00
2023-02-19T04:28:05.820Z,1.00
2023-02-19T04:29:05.717Z,1.00
2023-02-19T04:30:06.223Z,1.00
2023-02-19T04:31:05.825Z,1.00
2023-02-19T04:32:05.729Z,1.00
2023-02-19T04:33:05.743Z,1.00
2023-02-19T04:34:05.663Z,1.00
2023-02-19T04:35:05.753Z,1.00
2023-02-19T04:36:05.666Z,1.00
2023-02-19T04:37:05.755Z,1.00
2023-02-19T04:38:06.235Z,1.00
2023-02-19T04:39:05.576Z,1.00
2023-02-19T04:40:05.682Z,1.00
2023-02-19T04:41:05.698Z,1.00
2023-02-19T04:42:05.600Z,1.00
2023-02-19T04:43:05.614Z,1.00
2023-02-19T04:44:05.603Z,1.00
2023-02-19T04:45:05.616Z,1.00
2023-02-19T04:46:05.643Z,1.00
2023-02-19T04:47:05.548Z,1.00
2023-02-19T04:48:05.500Z,1.00
2023-02-19T04:49:05.540Z,1.00
2023-02-19T04:50:05.518Z,1.00
2023-02-19T04:51:05.557Z,1.00
2023-02-19T04:52:05.465Z,1.00
2023-02-19T04:53:05.579Z,1.00
2023-02-19T04:54:05.471Z,1.00
2023-02-19T04:55:05.474Z,1.00
2023-02-19T04:56:05.450Z,1.00
2023-02-19T04:57:05.488Z,1.00
2023-02-19T04:58:05.412Z,1.00
2023-02-19T04:59:05.405Z,1.00
2023-02-19T05:00:05.408Z,1.00
2023-02-19T05:01:05.512Z,1.00
2023-02-19T05:02:05.426Z,1.00
2023-02-19T05:03:05.330Z,1.00
2023-02-19T05:04:05.427Z,1.00
2023-02-19T05:05:05.346Z,1.00
2023-02-19T05:06:05.462Z,1.00
2023-02-19T05:07:05.468Z,1.00
2023-02-19T05:08:05.332Z,1.00
2023-02-19T05:09:05.483Z,1.00
2023-02-19T05:10:05.346Z,1.00
2023-02-19T05:11:05.358Z,1.00
2023-02-19T05:12:05.372Z,1.00
2023-02-19T05:13:05.275Z,1.00
2023-02-19T05:14:05.275Z,1.00
2023-02-19T05:15:05.277Z,1.00
2023-02-19T05:16:05.310Z,1.00
2023-02-19T05:17:05.390Z,1.00
2023-02-19T05:18:05.192Z,1.00
2023-02-19T05:19:05.257Z,1.00
2023-02-19T05:20:05.203Z,1.00
2023-02-19T05:21:05.354Z,1.00
2023-02-19T05:22:05.149Z,1.00
2023-02-19T05:23:05.472Z,1.00
2023-02-19T05:24:05.789Z,1.00
2023-02-19T05:25:05.291Z,1.00
2023-02-19T05:26:05.144Z,1.00
2023-02-19T05:27:05.210Z,1.00
2023-02-19T05:28:05.156Z,1.00
2023-02-19T05:29:05.163Z,1.00
2023-02-19T05:30:05.142Z,1.00
2023-02-19T05:31:05.119Z,1.00
2023-02-19T05:32:05.216Z,1.00
2023-02-19T05:33:05.088Z,1.00
2023-02-19T05:34:05.043Z,1.00
2023-02-19T05:35:05.041Z,1.00
2023-02-19T05:36:05.051Z,1.00
2023-02-19T05:37:05.028Z,1.00
2023-02-19T05:38:05.022Z,1.00
2023-02-19T05:39:04.989Z,1.00
2023-02-19T05:40:05.028Z,1.00
2023-02-19T05:41:05.006Z,1.00
2023-02-19T05:42:04.951Z,1.00
2023-02-19T05:43:04.968Z,1.00
2023-02-19T05:44:04.913Z,1.00
2023-02-19T05:45:04.908Z,1.00
2023-02-19T05:46:05.137Z,1.00
2023-02-19T05:47:04.881Z,1.00
2023-02-19T05:48:04.928Z,1.00
2023-02-19T05:49:04.935Z,1.00
2023-02-19T05:50:04.947Z,1.00
2023-02-19T05:51:04.923Z,1.00
2023-02-19T05:52:05.773Z,1.00
2023-02-19T05:53:04.824Z,1.00
2023-02-19T05:54:05.789Z,1.00
2023-02-19T05:55:04.781Z,1.00
2023-02-19T05:56:04.911Z,1.00
2023-02-19T05:57:04.888Z,1.00
2023-02-19T05:58:04.853Z,1.00
2023-02-19T05:59:04.812Z,1.00
2023-02-19T06:00:04.763Z,1.00
2023-02-19T06:01:04.826Z,1.00
2023-02-19T06:02:04.829Z,1.00
2023-02-19T06:03:04.829Z,1.00
2023-02-19T06:04:04.814Z,1.00
2023-02-19T06:05:04.714Z,1.00
2023-02-19T06:06:04.723Z,1.00
2023-02-19T06:07:04.766Z,1.00
2023-02-19T06:08:04.736Z,1.00
2023-02-19T06:09:04.642Z,1.00
2023-02-19T06:10:04.643Z,1.00
2023-02-19T06:11:04.750Z,1.00
2023-02-19T06:12:04.662Z,1.00
2023-02-19T06:13:04.668Z,1.00
2023-02-19T06:14:04.713Z,1.00
2023-02-19T06:15:04.573Z,1.00
2023-02-19T06:16:04.691Z,1.00
2023-02-19T06:17:04.595Z,1.00
2023-02-19T06:18:04.601Z,1.00
2023-02-19T06:19:04.608Z,1.00
2023-02-19T06:20:04.596Z,1.00
2023-02-19T06:21:04.591Z,1.00
2023-02-19T06:22:04.527Z,1.00
2023-02-19T06:23:04.530Z,1.00
2023-02-19T06:24:04.527Z,1.00
2023-02-19T06:25:05.049Z,1.00
2023-02-19T06:26:04.631Z,1.00
2023-02-19T06:27:04.565Z,1.00
2023-02-19T06:28:04.566Z,1.00
2023-02-19T06:29:04.584Z,1.00
2023-02-19T06:30:04.611Z,1.00
2023-02-19T06:31:04.531Z,1.00
2023-02-19T06:32:04.576Z,1.00
2023-02-19T06:33:04.491Z,1.00
2023-02-19T06:34:04.501Z,1.00
2023-02-19T06:35:04.412Z,1.00
2023-02-19T06:36:04.427Z,1.00
2023-02-19T06:37:04.507Z,1.00
2023-02-19T06:38:04.429Z,1.00
2023-02-19T06:39:04.441Z,1.00
2023-02-19T06:40:04.353Z,1.00
2023-02-19T06:41:04.357Z,1.00
2023-02-19T06:42:04.463Z,1.00
2023-02-19T06:43:05.378Z,1.00
2023-02-19T06:44:05.302Z,1.00
2023-02-19T06:45:04.546Z,1.00
2023-02-19T06:46:04.386Z,1.00
2023-02-19T06:47:07.037Z,1.00
2023-02-19T06:48:04.798Z,1.00
2023-02-19T06:49:04.189Z,1.00
2023-02-19T06:50:04.199Z,1.00
2023-02-19T06:51:04.300Z,1.00
2023-02-19T06:52:05.136Z,1.00
2023-02-19T06:53:04.191Z,1.00
2023-02-19T06:54:04.215Z,1.00
2023-02-19T06:55:04.105Z,1.00
2023-02-19T06:56:04.142Z,1.00
2023-02-19T06:57:04.238Z,1.00
2023-02-19T06:58:04.139Z,1.00
2023-02-19T06:59:04.254Z,1.00
2023-02-19T07:00:04.046Z,1.00
2023-02-19T07:01:04.977Z,1.00
2023-02-19T07:02:04.172Z,1.00
2023-02-19T07:03:05.610Z,1.00
2023-02-19T07:04:04.701Z,1.00
2023-02-19T07:05:04.044Z,1.00
2023-02-19T07:06:04.044Z,1.00
2023-02-19T07:07:03.977Z,1.00
2023-02-19T07:08:04.006Z,1.00
2023-02-19T07:09:03.915Z,1.00
2023-02-19T07:10:03.920Z,1.00
2023-02-19T07:11:04.021Z,1.00
2023-02-19T07:12:03.937Z,1.00
2023-02-19T07:13:03.889Z,1.00
2023-02-19T07:14:03.907Z,1.00
2023-02-19T07:15:03.860Z,1.00
2023-02-19T07:16:03.896Z,1.00
2023-02-19T07:17:03.858Z,1.00
2023-02-19T07:18:03.867Z,1.00
2023-02-19T07:19:03.832Z,1.00
2023-02-19T07:20:04.197Z,1.00
2023-02-19T07:21:03.784Z,1.00
2023-02-19T07:22:03.885Z,1.00
2023-02-19T07:23:03.789Z,1.00
2023-02-19T07:24:03.756Z,1.00
2023-02-19T07:25:03.765Z,1.00
2023-02-19T07:26:03.767Z,1.00
2023-02-19T07:27:03.773Z,1.00
2023-02-19T07:28:03.779Z,1.00
2023-02-19T07:29:03.681Z,1.00
2023-02-19T07:30:03.757Z,1.00
2023-02-19T07:31:04.280Z,1.00
2023-02-19T07:32:03.752Z,1.00
2023-02-19T07:33:03.973Z,1.00
2023-02-19T07:34:03.723Z,1.00
2023-02-19T07:35:04.183Z,1.00
2023-02-19T07:36:07.427Z,1.00
2023-02-19T07:37:04.494Z,1.00
2023-02-19T07:38:05.496Z,1.00
2023-02-19T07:39:03.799Z,1.00
2023-02-19T07:40:05.326Z,1.00
2023-02-19T07:41:04.747Z,1.00
2023-02-19T07:42:04.394Z,1.00
2023-02-19T07:43:04.506Z,1.00
2023-02-19T07:44:03.706Z,1.00
2023-02-19T07:45:05.273Z,1.00
2023-02-19T07:46:05.147Z,0.00
2023-02-19T07:47:04.123Z,1.00
2023-02-19T07:48:04.650Z,1.00
2023-02-19T07:49:03.826Z,1.00
2023-02-19T07:50:03.535Z,1.00
2023-02-19T07:51:03.758Z,1.00
2023-02-19T07:52:03.854Z,1.00
2023-02-19T07:53:04.167Z,1.00
2023-02-19T07:54:03.470Z,1.00
2023-02-19T07:55:03.870Z,1.00
2023-02-19T07:56:04.286Z,1.00
2023-02-19T07:57:03.430Z,1.00
2023-02-19T07:58:06.099Z,1.00
2023-02-19T07:59:03.386Z,1.00
2023-02-19T08:00:03.501Z,1.00
2023-02-19T08:01:03.419Z,1.00
2023-02-19T08:02:03.409Z,1.00
2023-02-19T08:03:03.528Z,1.00
2023-02-19T08:04:03.434Z,1.00
2023-02-19T08:05:03.485Z,1.00
2023-02-19T08:06:03.538Z,1.00
2023-02-19T08:07:03.642Z,1.00
2023-02-19T08:08:03.300Z,1.00
2023-02-19T08:09:03.289Z,1.00
2023-02-19T08:10:03.253Z,1.00
2023-02-19T08:11:03.409Z,1.00
2023-02-19T08:12:03.419Z,1.00
2023-02-19T08:13:03.441Z,1.00
2023-02-19T08:14:03.300Z,1.00
2023-02-19T08:15:03.400Z,1.00
2023-02-19T08:16:18.434Z,1.00
2023-02-19T08:17:03.379Z,1.00
2023-02-19T08:18:03.764Z,1.00
2023-02-19T08:19:03.317Z,1.00
2023-02-19T08:20:03.268Z,1.00
2023-02-19T08:21:03.271Z,1.00
2023-02-19T08:22:03.241Z,1.00
2023-02-19T08:23:03.259Z,1.00
2023-02-19T08:24:03.278Z,1.00
2023-02-19T08:25:03.165Z,1.00
2023-02-19T08:26:03.178Z,1.00
2023-02-19T08:27:03.183Z,1.00
2023-02-19T08:28:03.204Z,1.00
2023-02-19T08:29:03.324Z,1.00
2023-02-19T08:30:03.233Z,1.00
2023-02-19T08:31:03.213Z,1.00
2023-02-19T08:32:03.136Z,1.00
2023-02-19T08:33:03.233Z,1.00
2023-02-19T08:34:03.116Z,1.00
2023-02-19T08:35:03.026Z,1.00
2023-02-19T08:36:03.221Z,1.00
2023-02-19T08:37:03.349Z,1.00
2023-02-19T08:38:03.053Z,1.00
2023-02-19T08:39:03.062Z,1.00
2023-02-19T08:40:03.057Z,1.00
2023-02-19T08:41:03.376Z,1.00
2023-02-19T08:42:03.697Z,1.00
2023-02-19T08:43:02.986Z,1.00
2023-02-19T08:44:02.997Z,1.00
2023-02-19T08:45:03.024Z,1.00
2023-02-19T08:46:03.716Z,1.00
2023-02-19T08:47:03.106Z,1.00
2023-02-19T08:48:02.909Z,1.00
2023-02-19T08:49:02.942Z,1.00
2023-02-19T08:50:02.967Z,1.00
2023-02-19T08:51:03.656Z,1.00
2023-02-19T08:52:02.946Z,1.00
2023-02-19T08:53:02.964Z,1.00
2023-02-19T08:54:03.766Z,0.00
2023-02-19T08:55:02.968Z,0.00
2023-02-19T08:56:02.865Z,0.00
2023-02-19T08:57:02.865Z,0.00
2023-02-19T08:58:02.882Z,0.00
2023-02-19T08:59:03.196Z,0.00
2023-02-19T09:00:02.921Z,0.00
2023-02-19T09:01:02.957Z,0.00
2023-02-19T09:02:02.915Z,0.00
2023-02-19T09:03:02.813Z,0.00
2023-02-19T09:04:05.089Z,0.00
2023-02-19T09:05:03.024Z,0.00
2023-02-19T09:06:02.735Z,1.00
2023-02-19T09:07:02.721Z,0.00
2023-02-19T09:08:02.747Z,0.00
2023-02-19T09:09:02.858Z,0.00
2023-02-19T09:10:02.754Z,0.00
2023-02-19T09:11:03.167Z,0.00
2023-02-19T09:12:02.763Z,1.00
2023-02-19T09:13:02.753Z,1.00
2023-02-19T09:14:02.683Z,1.00
2023-02-19T09:15:03.723Z,1.00
2023-02-19T09:16:02.623Z,1.00
2023-02-19T09:17:02.591Z,1.00
2023-02-19T09:18:02.600Z,1.00
2023-02-19T09:19:02.605Z,1.00
2023-02-19T09:20:02.529Z,1.00
2023-02-19T09:21:02.533Z,1.00
2023-02-19T09:22:02.522Z,1.00
2023-02-19T09:23:02.496Z,1.00
2023-02-19T09:24:02.436Z,1.00
2023-02-19T09:25:02.589Z,0.00
2023-02-19T09:26:02.511Z,0.00
2023-02-19T09:27:02.517Z,0.00
2023-02-19T09:28:02.480Z,0.00
2023-02-19T09:29:02.491Z,0.00
2023-02-19T09:30:02.540Z,0.00
2023-02-19T09:31:02.413Z,2.00
2023-02-19T09:32:03.168Z,1.00
2023-02-19T09:33:02.454Z,0.00
2023-02-19T09:34:02.366Z,1.00
2023-02-19T09:35:02.364Z,1.00
2023-02-19T09:36:02.346Z,1.00
2023-02-19T09:37:02.319Z,1.00
2023-02-19T09:38:02.329Z,1.00
2023-02-19T09:39:02.342Z,1.00
2023-02-19T09:40:02.304Z,1.00
2023-02-19T09:41:02.300Z,1.00
2023-02-19T09:42:02.258Z,1.00
2023-02-19T09:43:02.264Z,1.00
2023-02-19T09:44:02.270Z,1.00
2023-02-19T09:45:02.386Z,2.00
2023-02-19T09:46:02.420Z,0.00
2023-02-19T09:47:02.294Z,0.00
2023-02-19T09:48:02.196Z,2.00
2023-02-19T09:49:02.217Z,2.00
2023-02-19T09:50:02.206Z,2.00
2023-02-19T09:51:02.220Z,2.00
2023-02-19T09:52:02.220Z,1.00
2023-02-19T09:53:02.191Z,1.00
2023-02-19T09:54:02.185Z,1.00
2023-02-19T09:55:02.149Z,1.00
2023-02-19T09:56:03.212Z,1.00
2023-02-19T09:57:02.103Z,2.00
2023-02-19T09:58:02.164Z,2.00
2023-02-19T09:59:02.127Z,2.00
2023-02-19T10:00:02.136Z,1.00
2023-02-19T10:01:02.078Z,1.00
2023-02-19T10:02:02.654Z,1.00
2023-02-19T10:03:02.154Z,1.00
2023-02-19T10:04:02.058Z,1.00
2023-02-19T10:05:02.083Z,1.00
2023-02-19T10:06:02.012Z,6.00
2023-02-19T10:07:02.022Z,6.00
2023-02-19T10:08:02.174Z,4.00
2023-02-19T10:09:02.081Z,5.00
2023-02-19T10:10:02.800Z,3.00
2023-02-19T10:11:02.325Z,3.00
2023-02-19T10:12:01.997Z,4.00
2023-02-19T10:13:02.842Z,1.00
2023-02-19T10:14:03.651Z,2.00
2023-02-19T10:15:02.128Z,2.00
2023-02-19T10:16:02.193Z,2.00
2023-02-19T10:17:01.931Z,1.00
2023-02-19T10:18:01.949Z,4.00
2023-02-19T10:19:01.954Z,4.00
2023-02-19T10:20:02.168Z,6.00
2023-02-19T10:21:02.172Z,2.00
2023-02-19T10:22:01.868Z,5.00
2023-02-19T10:23:01.881Z,6.00
2023-02-19T10:24:01.883Z,5.00
2023-02-19T10:25:02.189Z,4.00
2023-02-19T10:26:01.902Z,8.00
2023-02-19T10:27:01.906Z,8.00
2023-02-19T10:28:01.914Z,7.00
2023-02-19T10:29:01.823Z,5.00
2023-02-19T10:30:01.894Z,7.00
2023-02-19T10:31:01.976Z,4.00
2023-02-19T10:32:01.863Z,6.00
2023-02-19T10:33:01.857Z,6.00
2023-02-19T10:34:01.775Z,4.00
2023-02-19T10:35:01.759Z,4.00
2023-02-19T10:36:01.771Z,4.00
2023-02-19T10:37:01.781Z,5.00
2023-02-19T10:38:01.820Z,5.00
2023-02-19T10:39:01.686Z,5.00
2023-02-19T10:40:01.704Z,3.00
2023-02-19T10:41:01.698Z,2.00
2023-02-19T10:42:02.233Z,3.00
2023-02-19T10:43:01.857Z,4.00
2023-02-19T10:44:02.643Z,3.00
2023-02-19T10:45:01.782Z,4.00
2023-02-19T10:46:01.855Z,3.00
2023-02-19T10:47:02.116Z,3.00
2023-02-19T10:48:01.643Z,5.00
2023-02-19T10:49:01.776Z,7.00
2023-02-19T10:50:04.716Z,4.00
2023-02-19T10:51:01.681Z,9.00
2023-02-19T10:52:01.595Z,3.00
2023-02-19T10:53:01.795Z,3.00
2023-02-19T10:54:01.582Z,2.00
2023-02-19T10:55:01.907Z,4.00
2023-02-19T10:56:01.604Z,4.00
2023-02-19T10:57:01.617Z,3.00
2023-02-19T10:58:01.515Z,8.00
2023-02-19T10:59:01.530Z,9.00
2023-02-19T11:00:01.534Z,5.00
2023-02-19T11:01:01.742Z,8.00
2023-02-19T11:02:01.657Z,5.00
2023-02-19T11:03:01.550Z,4.00
2023-02-19T11:04:01.514Z,9.00
2023-02-19T11:05:01.531Z,8.00
2023-02-19T11:06:01.483Z,6.00
2023-02-19T11:07:01.476Z,7.00
2023-02-19T11:08:01.489Z,6.00
2023-02-19T11:09:01.401Z,6.00
2023-02-19T11:10:01.352Z,6.00
2023-02-19T11:11:01.706Z,8.00
2023-02-19T11:12:01.518Z,10.00
2023-02-19T11:13:01.413Z,4.00
2023-02-19T11:14:01.413Z,8.00
2023-02-19T11:15:01.287Z,5.00
2023-02-19T11:16:01.395Z,8.00
2023-02-19T11:17:01.407Z,9.00
2023-02-19T11:18:01.352Z,3.00
2023-02-19T11:19:01.345Z,5.00
2023-02-19T11:20:01.362Z,3.00
2023-02-19T11:21:01.266Z,7.00
2023-02-19T11:22:01.281Z,10.00
2023-02-19T11:23:01.239Z,8.00
2023-02-19T11:24:01.556Z,12.00
2023-02-19T11:25:02.108Z,5.00
2023-02-19T11:26:01.257Z,4.00
2023-02-19T11:27:01.202Z,9.00
2023-02-19T11:28:01.275Z,7.00
2023-02-19T11:29:01.199Z,7.00
2023-02-19T11:30:02.332Z,14.00
2023-02-19T11:31:01.220Z,10.00
2023-02-19T11:32:01.373Z,4.00
2023-02-19T11:33:01.090Z,4.00
2023-02-19T11:34:01.151Z,6.00
2023-02-19T11:35:01.104Z,8.00
2023-02-19T11:36:01.112Z,9.00
2023-02-19T11:37:01.125Z,7.00
2023-02-19T11:38:01.071Z,6.00
2023-02-19T11:39:01.135Z,8.00
2023-02-19T11:40:00.989Z,7.00
2023-02-19T11:41:01.061Z,10.00
2023-02-19T11:42:01.056Z,8.00
2023-02-19T11:43:01.591Z,4.00
2023-02-19T11:44:00.974Z,4.00
2023-02-19T11:45:01.079Z,9.00
2023-02-19T11:46:00.951Z,10.00
2023-02-19T11:47:00.996Z,5.00
2023-02-19T11:48:01.106Z,8.00
2023-02-19T11:49:01.004Z,13.00
2023-02-19T11:50:00.917Z,14.00
2023-02-19T11:51:01.035Z,14.00
2023-02-19T11:52:00.923Z,9.00
2023-02-19T11:53:01.253Z,8.00
2023-02-19T11:54:00.936Z,10.00
2023-02-19T11:55:00.953Z,17.00
2023-02-19T11:56:00.960Z,22.00
2023-02-19T11:57:00.851Z,11.00
2023-02-19T11:58:00.869Z,12.00
2023-02-19T11:59:01.334Z,14.00
2023-02-19T12:00:00.878Z,12.00
2023-02-19T12:01:00.884Z,18.00
2023-02-19T12:02:00.931Z,12.00
2023-02-19T12:03:00.817Z,14.00
2023-02-19T12:04:00.808Z,25.00
2023-02-19T12:05:01.278Z,14.00
2023-02-19T12:06:00.821Z,13.00
2023-02-19T12:07:00.837Z,11.00
2023-02-19T12:08:00.846Z,10.00
2023-02-19T12:09:00.738Z,17.00
2023-02-19T12:10:00.858Z,18.00
2023-02-19T12:11:00.872Z,11.00
2023-02-19T12:12:00.769Z,29.00
2023-02-19T12:13:01.788Z,15.00
2023-02-19T12:14:00.768Z,13.00
2023-02-19T12:15:00.675Z,17.00
2023-02-19T12:16:00.692Z,13.00
2023-02-19T12:17:00.685Z,25.00
2023-02-19T12:18:00.696Z,27.00
2023-02-19T12:19:00.717Z,22.00
2023-02-19T12:20:00.722Z,27.00
2023-02-19T12:21:00.611Z,13.00
2023-02-19T12:22:00.725Z,16.00
2023-02-19T12:23:00.631Z,22.00
2023-02-19T12:24:00.629Z,35.00
2023-02-19T12:25:00.641Z,23.00
2023-02-19T12:26:00.663Z,20.00
2023-02-19T12:27:00.550Z,31.00
2023-02-19T12:28:00.652Z,39.00
2023-02-19T12:29:00.567Z,35.00
2023-02-19T12:30:00.672Z,28.00
2023-02-19T12:31:02.268Z,38.00
2023-02-19T12:32:00.622Z,24.00
2023-02-19T12:33:00.490Z,44.00
2023-02-19T12:34:00.498Z,54.00
2023-02-19T12:35:00.504Z,39.00
2023-02-19T12:36:00.517Z,38.00
2023-02-19T12:37:00.744Z,23.00
2023-02-19T12:38:00.596Z,29.00
2023-02-19T12:39:01.042Z,37.00
2023-02-19T12:40:00.512Z,41.00
2023-02-19T12:41:00.415Z,26.00
2023-02-19T12:42:00.450Z,30.00
2023-02-19T12:43:00.768Z,44.00
2023-02-19T12:44:00.361Z,50.00
2023-02-19T12:45:00.350Z,33.00
2023-02-19T12:46:00.575Z,43.00
2023-02-19T12:47:00.380Z,34.00
2023-02-19T12:48:00.460Z,30.00
2023-02-19T12:49:02.235Z,31.00
2023-02-19T12:50:00.686Z,29.00
2023-02-19T12:51:00.830Z,29.00
2023-02-19T12:52:00.795Z,44.00
2023-02-19T12:53:00.420Z,46.00
2023-02-19T12:54:00.860Z,53.00
2023-02-19T12:55:01.461Z,52.00
2023-02-19T12:56:01.240Z,41.00
2023-02-19T12:57:00.262Z,47.00
2023-02-19T12:58:00.319Z,65.00
2023-02-19T12:59:00.775Z,33.00
2023-02-19T13:00:00.291Z,36.00
2023-02-19T13:01:00.383Z,56.00
2023-02-19T13:02:00.201Z,63.00
2023-02-19T13:03:00.255Z,63.00
2023-02-19T13:04:00.210Z,52.00
2023-02-19T13:05:01.284Z,40.00
2023-02-19T13:06:00.282Z,44.00
2023-02-19T13:07:00.847Z,28.00
2023-02-19T13:08:00.141Z,26.00
2023-02-19T13:09:07.491Z,29.00
2023-02-19T13:10:00.115Z,47.00
2023-02-19T13:11:00.175Z,56.00
2023-02-19T13:12:00.130Z,46.00
2023-02-19T13:13:00.122Z,61.00
2023-02-19T13:14:00.072Z,60.00
2023-02-19T13:15:00.039Z,41.00
2023-02-19T13:16:00.039Z,52.00
2023-02-19T13:17:00.145Z,35.00